sensor_id;sensor_type;location;lat;lon;timestamp;pressure;altitude;pressure_sealevel;temperature;humidity
6090;BME280;3073;42.660;23.316;2023-05-14T00:01:33;94939.81;;;22.52;43.78
6090;BME280;3073;42.660;23.316;2023-05-14T00:04:00;94937.06;;;22.18;43.83
6090;BME280;3073;42.660;23.316;2023-05-14T00:06:28;94933.13;;;22.59;43.38
6090;BME280;3073;42.660;23.316;2023-05-14T00:08:56;94931.72;;;22.53;43.26
6090;BME280;3073;42.660;23.316;2023-05-14T00:11:23;94931.56;;;22.50;43.47
6090;BME280;3073;42.660;23.316;2023-05-14T00:13:50;94934.72;;;22.69;43.16
6090;BME280;3073;42.660;23.316;2023-05-14T00:16:17;94933.63;;;22.31;44.42
6090;BME280;3073;42.660;23.316;2023-05-14T00:18:43;94917.19;;;22.22;44.22
6090;BME280;3073;42.660;23.316;2023-05-14T00:21:10;94929.44;;;22.21;43.96
6090;BME280;3073;42.660;23.316;2023-05-14T00:23:39;94928.16;;;22.41;44.18
6090;BME280;3073;42.660;23.316;2023-05-14T00:26:06;94914.44;;;22.18;44.06
6090;BME280;3073;42.660;23.316;2023-05-14T00:28:32;94906.38;;;21.97;44.87
6090;BME280;3073;42.660;23.316;2023-05-14T00:30:59;94904.78;;;22.19;44.18
6090;BME280;3073;42.660;23.316;2023-05-14T00:33:26;94912.34;;;21.62;45.44
6090;BME280;3073;42.660;23.316;2023-05-14T00:35:53;94902.69;;;21.76;45.56
6090;BME280;3073;42.660;23.316;2023-05-14T00:38:20;94906.56;;;21.43;45.57
6090;BME280;3073;42.660;23.316;2023-05-14T00:40:49;94899.44;;;21.71;45.10
6090;BME280;3073;42.660;23.316;2023-05-14T00:43:17;94902.25;;;22.05;44.75
6090;BME280;3073;42.660;23.316;2023-05-14T00:45:44;94896.06;;;21.92;44.63
6090;BME280;3073;42.660;23.316;2023-05-14T00:48:11;94902.13;;;21.66;45.13
6090;BME280;3073;42.660;23.316;2023-05-14T00:50:39;94898.25;;;21.54;45.02
6090;BME280;3073;42.660;23.316;2023-05-14T00:53:05;94895.59;;;21.68;45.01
6090;BME280;3073;42.660;23.316;2023-05-14T00:55:35;94893.41;;;21.62;44.98
6090;BME280;3073;42.660;23.316;2023-05-14T00:58:08;94884.47;;;21.90;44.25
6090;BME280;3073;42.660;23.316;2023-05-14T01:00:36;94884.81;;;21.75;44.22
6090;BME280;3073;42.660;23.316;2023-05-14T01:03:03;94883.78;;;21.62;44.54
6090;BME280;3073;42.660;23.316;2023-05-14T01:05:35;94880.34;;;21.31;44.89
6090;BME280;3073;42.660;23.316;2023-05-14T01:08:12;94885.59;;;21.62;44.19
6090;BME280;3073;42.660;23.316;2023-05-14T01:10:49;94881.81;;;21.45;44.59
6090;BME280;3073;42.660;23.316;2023-05-14T01:13:32;94881.81;;;21.45;44.67
6090;BME280;3073;42.660;23.316;2023-05-14T01:16:08;94878.59;;;21.84;43.91
6090;BME280;3073;42.660;23.316;2023-05-14T01:18:39;94874.41;;;21.52;44.24
6090;BME280;3073;42.660;23.316;2023-05-14T01:23:47;94889.50;;;21.73;43.57
6090;BME280;3073;42.660;23.316;2023-05-14T01:26:14;94889.03;;;21.71;43.35
6090;BME280;3073;42.660;23.316;2023-05-14T01:28:41;94891.56;;;21.62;43.58
6090;BME280;3073;42.660;23.316;2023-05-14T01:31:15;94899.47;;;21.79;43.46
6090;BME280;3073;42.660;23.316;2023-05-14T01:33:46;94895.44;;;21.65;43.43
6090;BME280;3073;42.660;23.316;2023-05-14T01:36:14;94908.75;;;21.49;43.75
6090;BME280;3073;42.660;23.316;2023-05-14T01:38:42;94899.75;;;21.91;42.70
6090;BME280;3073;42.660;23.316;2023-05-14T01:41:12;94902.22;;;21.96;42.69
6090;BME280;3073;42.660;23.316;2023-05-14T01:43:40;94904.19;;;21.55;43.28
6090;BME280;3073;42.660;23.316;2023-05-14T01:46:06;94896.19;;;21.29;43.36
6090;BME280;3073;42.660;23.316;2023-05-14T01:48:33;94894.63;;;21.42;43.54
6090;BME280;3073;42.660;23.316;2023-05-14T01:51:02;94893.19;;;21.14;43.79
6090;BME280;3073;42.660;23.316;2023-05-14T01:53:29;94900.13;;;21.40;43.29
6090;BME280;3073;42.660;23.316;2023-05-14T01:55:56;94903.19;;;20.66;44.95
6090;BME280;3073;42.660;23.316;2023-05-14T01:58:24;94905.75;;;21.06;44.65
6090;BME280;3073;42.660;23.316;2023-05-14T02:00:51;94905.50;;;20.67;45.52
6090;BME280;3073;42.660;23.316;2023-05-14T02:03:17;94904.78;;;21.02;45.90
6090;BME280;3073;42.660;23.316;2023-05-14T02:05:44;94898.09;;;20.47;46.68
6090;BME280;3073;42.660;23.316;2023-05-14T02:08:11;94901.28;;;20.44;47.20
6090;BME280;3073;42.660;23.316;2023-05-14T02:10:37;94899.25;;;20.41;47.19
6090;BME280;3073;42.660;23.316;2023-05-14T02:13:04;94909.72;;;20.49;47.00
6090;BME280;3073;42.660;23.316;2023-05-14T02:15:32;94905.59;;;20.62;46.27
6090;BME280;3073;42.660;23.316;2023-05-14T02:17:59;94901.75;;;20.73;46.41
6090;BME280;3073;42.660;23.316;2023-05-14T02:20:26;94907.47;;;20.29;46.63
6090;BME280;3073;42.660;23.316;2023-05-14T02:22:53;94907.41;;;20.89;45.84
6090;BME280;3073;42.660;23.316;2023-05-14T02:25:20;94914.19;;;21.26;45.51
6090;BME280;3073;42.660;23.316;2023-05-14T02:27:46;94914.25;;;20.85;46.02
6090;BME280;3073;42.660;23.316;2023-05-14T02:30:14;94917.97;;;20.05;46.34
6090;BME280;3073;42.660;23.316;2023-05-14T02:32:42;94915.56;;;20.41;46.46
6090;BME280;3073;42.660;23.316;2023-05-14T02:35:09;94924.63;;;20.58;46.24
6090;BME280;3073;42.660;23.316;2023-05-14T02:37:35;94914.22;;;20.44;46.55
6090;BME280;3073;42.660;23.316;2023-05-14T02:40:03;94927.31;;;20.20;46.86
6090;BME280;3073;42.660;23.316;2023-05-14T02:42:30;94922.03;;;20.25;46.57
6090;BME280;3073;42.660;23.316;2023-05-14T02:44:57;94931.59;;;19.97;47.28
6090;BME280;3073;42.660;23.316;2023-05-14T02:47:24;94923.28;;;20.14;46.79
6090;BME280;3073;42.660;23.316;2023-05-14T02:49:52;94933.34;;;19.83;47.10
6090;BME280;3073;42.660;23.316;2023-05-14T02:52:19;94934.22;;;20.98;45.53
6090;BME280;3073;42.660;23.316;2023-05-14T02:54:46;94945.53;;;20.47;46.49
6090;BME280;3073;42.660;23.316;2023-05-14T02:57:12;94945.56;;;20.75;45.97
6090;BME280;3073;42.660;23.316;2023-05-14T02:59:39;94950.63;;;20.66;46.12
6090;BME280;3073;42.660;23.316;2023-05-14T03:02:06;94944.59;;;20.84;45.98
6090;BME280;3073;42.660;23.316;2023-05-14T03:04:33;94939.59;;;21.01;46.08
6090;BME280;3073;42.660;23.316;2023-05-14T03:07:01;94938.44;;;20.80;46.12
6090;BME280;3073;42.660;23.316;2023-05-14T03:09:28;94946.22;;;20.53;46.81
6090;BME280;3073;42.660;23.316;2023-05-14T03:11:55;94935.28;;;21.11;46.13
6090;BME280;3073;42.660;23.316;2023-05-14T03:14:22;94919.72;;;20.10;47.47
6090;BME280;3073;42.660;23.316;2023-05-14T03:16:49;94910.53;;;20.18;47.66
6090;BME280;3073;42.660;23.316;2023-05-14T03:19:15;94915.66;;;20.91;46.32
6090;BME280;3073;42.660;23.316;2023-05-14T03:21:42;94923.22;;;21.28;46.00
6090;BME280;3073;42.660;23.316;2023-05-14T03:24:11;94919.81;;;20.65;47.94
6090;BME280;3073;42.660;23.316;2023-05-14T03:26:38;94917.63;;;20.26;49.59
6090;BME280;3073;42.660;23.316;2023-05-14T03:29:05;94915.19;;;20.16;50.14
6090;BME280;3073;42.660;23.316;2023-05-14T03:31:34;94914.34;;;19.74;50.71
6090;BME280;3073;42.660;23.316;2023-05-14T03:34:01;94918.34;;;19.48;51.34
6090;BME280;3073;42.660;23.316;2023-05-14T03:36:28;94931.56;;;19.46;51.85
6090;BME280;3073;42.660;23.316;2023-05-14T03:38:56;94934.34;;;19.50;51.58
6090;BME280;3073;42.660;23.316;2023-05-14T03:41:24;94928.94;;;19.28;51.86
6090;BME280;3073;42.660;23.316;2023-05-14T03:43:51;94916.69;;;19.33;51.77
6090;BME280;3073;42.660;23.316;2023-05-14T03:46:18;94924.88;;;19.22;52.58
6090;BME280;3073;42.660;23.316;2023-05-14T03:48:45;94922.34;;;19.35;51.72
6090;BME280;3073;42.660;23.316;2023-05-14T03:51:12;94923.66;;;18.95;52.36
6090;BME280;3073;42.660;23.316;2023-05-14T03:53:38;94931.63;;;18.75;52.62
6090;BME280;3073;42.660;23.316;2023-05-14T03:56:05;94936.47;;;19.48;51.23
6090;BME280;3073;42.660;23.316;2023-05-14T03:58:34;94930.38;;;19.58;51.11
6090;BME280;3073;42.660;23.316;2023-05-14T04:01:00;94927.06;;;19.15;50.98
6090;BME280;3073;42.660;23.316;2023-05-14T04:03:27;94926.88;;;19.67;50.44
6090;BME280;3073;42.660;23.316;2023-05-14T04:05:54;94929.50;;;19.81;50.11
6090;BME280;3073;42.660;23.316;2023-05-14T04:08:21;94933.50;;;19.73;50.40
6090;BME280;3073;42.660;23.316;2023-05-14T04:10:48;94932.38;;;19.79;50.02
6090;BME280;3073;42.660;23.316;2023-05-14T04:13:16;94927.13;;;19.84;49.86
6090;BME280;3073;42.660;23.316;2023-05-14T04:15:44;94944.16;;;20.04;49.88
6090;BME280;3073;42.660;23.316;2023-05-14T04:18:11;94945.59;;;20.29;49.65
6090;BME280;3073;42.660;23.316;2023-05-14T04:20:38;94947.22;;;19.74;49.48
6090;BME280;3073;42.660;23.316;2023-05-14T04:23:05;94950.09;;;19.72;49.25
6090;BME280;3073;42.660;23.316;2023-05-14T04:25:32;94940.38;;;19.64;49.71
6090;BME280;3073;42.660;23.316;2023-05-14T04:27:59;94948.41;;;19.63;50.26
6090;BME280;3073;42.660;23.316;2023-05-14T04:30:26;94956.56;;;20.07;49.31
6090;BME280;3073;42.660;23.316;2023-05-14T04:32:54;94967.50;;;19.85;49.47
6090;BME280;3073;42.660;23.316;2023-05-14T04:35:21;94964.56;;;20.57;49.25
6090;BME280;3073;42.660;23.316;2023-05-14T04:37:47;94968.84;;;20.34;50.31
6090;BME280;3073;42.660;23.316;2023-05-14T04:40:14;94974.72;;;20.53;50.88
6090;BME280;3073;42.660;23.316;2023-05-14T04:42:42;94978.72;;;19.81;51.27
6090;BME280;3073;42.660;23.316;2023-05-14T04:45:09;94975.19;;;19.72;52.65
6090;BME280;3073;42.660;23.316;2023-05-14T04:47:37;94984.47;;;20.10;52.64
6090;BME280;3073;42.660;23.316;2023-05-14T04:50:07;94980.19;;;20.38;53.35
6090;BME280;3073;42.660;23.316;2023-05-14T04:52:34;94992.06;;;19.69;55.22
6090;BME280;3073;42.660;23.316;2023-05-14T04:55:01;94987.34;;;19.58;55.98
6090;BME280;3073;42.660;23.316;2023-05-14T04:57:28;94989.41;;;19.13;57.22
6090;BME280;3073;42.660;23.316;2023-05-14T04:59:54;94989.06;;;19.20;57.84
6090;BME280;3073;42.660;23.316;2023-05-14T05:02:21;94987.16;;;19.49;57.84
6090;BME280;3073;42.660;23.316;2023-05-14T05:04:48;95004.91;;;19.37;57.59
6090;BME280;3073;42.660;23.316;2023-05-14T05:07:16;95010.91;;;19.32;58.16
6090;BME280;3073;42.660;23.316;2023-05-14T05:09:43;95014.94;;;19.20;59.95
6090;BME280;3073;42.660;23.316;2023-05-14T05:12:10;95019.56;;;19.46;59.92
6090;BME280;3073;42.660;23.316;2023-05-14T05:14:37;95021.88;;;19.00;60.92
6090;BME280;3073;42.660;23.316;2023-05-14T05:17:04;95034.84;;;19.85;60.81
6090;BME280;3073;42.660;23.316;2023-05-14T05:19:31;95027.91;;;19.62;61.53
6090;BME280;3073;42.660;23.316;2023-05-14T05:21:58;95031.81;;;19.41;63.11
6090;BME280;3073;42.660;23.316;2023-05-14T05:24:26;95044.41;;;19.24;64.06
6090;BME280;3073;42.660;23.316;2023-05-14T05:26:53;95045.75;;;19.64;64.83
6090;BME280;3073;42.660;23.316;2023-05-14T05:29:21;95035.53;;;19.06;68.94
6090;BME280;3073;42.660;23.316;2023-05-14T05:31:48;95032.59;;;19.79;65.49
6090;BME280;3073;42.660;23.316;2023-05-14T05:34:15;95044.28;;;19.10;70.43
6090;BME280;3073;42.660;23.316;2023-05-14T05:36:42;95041.25;;;18.50;73.19
6090;BME280;3073;42.660;23.316;2023-05-14T05:39:08;95051.78;;;18.20;77.25
6090;BME280;3073;42.660;23.316;2023-05-14T05:41:37;95054.91;;;19.09;75.70
6090;BME280;3073;42.660;23.316;2023-05-14T05:44:05;95052.09;;;18.09;80.41
6090;BME280;3073;42.660;23.316;2023-05-14T05:46:32;95055.53;;;18.38;80.29
6090;BME280;3073;42.660;23.316;2023-05-14T05:48:58;95056.81;;;18.01;86.67
6090;BME280;3073;42.660;23.316;2023-05-14T05:51:25;95051.28;;;18.52;82.83
6090;BME280;3073;42.660;23.316;2023-05-14T05:53:52;95061.78;;;18.66;82.44
6090;BME280;3073;42.660;23.316;2023-05-14T05:56:19;95062.19;;;18.44;86.20
6090;BME280;3073;42.660;23.316;2023-05-14T05:58:47;95061.28;;;18.92;86.44
6090;BME280;3073;42.660;23.316;2023-05-14T06:01:14;95050.34;;;18.72;88.47
6090;BME280;3073;42.660;23.316;2023-05-14T06:03:41;95055.97;;;18.79;87.85
6090;BME280;3073;42.660;23.316;2023-05-14T06:06:08;95050.66;;;18.94;86.28
6090;BME280;3073;42.660;23.316;2023-05-14T06:08:35;95048.66;;;18.86;85.36
6090;BME280;3073;42.660;23.316;2023-05-14T06:11:02;95056.41;;;18.23;87.12
6090;BME280;3073;42.660;23.316;2023-05-14T06:13:28;95057.47;;;18.56;84.17
6090;BME280;3073;42.660;23.316;2023-05-14T06:15:57;95059.94;;;17.39;91.30
6090;BME280;3073;42.660;23.316;2023-05-14T06:18:24;95061.19;;;17.57;91.59
6090;BME280;3073;42.660;23.316;2023-05-14T06:20:51;95056.44;;;17.79;91.25
6090;BME280;3073;42.660;23.316;2023-05-14T06:23:21;95042.22;;;18.21;91.24
6090;BME280;3073;42.660;23.316;2023-05-14T06:25:48;95046.50;;;18.69;91.90
6090;BME280;3073;42.660;23.316;2023-05-14T06:28:15;95037.34;;;18.53;88.41
6090;BME280;3073;42.660;23.316;2023-05-14T06:30:42;95043.34;;;18.43;87.67
6090;BME280;3073;42.660;23.316;2023-05-14T06:33:10;95058.41;;;18.31;89.42
6090;BME280;3073;42.660;23.316;2023-05-14T06:35:40;95063.44;;;18.13;90.84
6090;BME280;3073;42.660;23.316;2023-05-14T06:38:13;95064.88;;;18.34;91.19
6090;BME280;3073;42.660;23.316;2023-05-14T06:40:54;95052.31;;;18.17;88.08
6090;BME280;3073;42.660;23.316;2023-05-14T06:43:23;95041.16;;;18.22;93.39
6090;BME280;3073;42.660;23.316;2023-05-14T06:45:50;95063.09;;;17.90;95.65
6090;BME280;3073;42.660;23.316;2023-05-14T06:48:19;95052.41;;;18.07;96.20
6090;BME280;3073;42.660;23.316;2023-05-14T06:50:47;95041.31;;;17.58;94.15
6090;BME280;3073;42.660;23.316;2023-05-14T06:53:14;95021.44;;;17.53;95.57
6090;BME280;3073;42.660;23.316;2023-05-14T06:55:41;95026.50;;;17.14;95.00
6090;BME280;3073;42.660;23.316;2023-05-14T06:58:10;95026.81;;;16.97;100.00
6090;BME280;3073;42.660;23.316;2023-05-14T07:00:36;95022.97;;;16.85;100.00
6090;BME280;3073;42.660;23.316;2023-05-14T07:03:07;95023.41;;;17.12;100.00
6090;BME280;3073;42.660;23.316;2023-05-14T07:05:35;95025.56;;;17.54;100.00
6090;BME280;3073;42.660;23.316;2023-05-14T07:08:02;95033.06;;;17.56;100.00
6090;BME280;3073;42.660;23.316;2023-05-14T07:10:29;95032.38;;;17.30;100.00
6090;BME280;3073;42.660;23.316;2023-05-14T07:12:56;95031.69;;;17.68;100.00
6090;BME280;3073;42.660;23.316;2023-05-14T07:15:22;95038.16;;;16.91;100.00
6090;BME280;3073;42.660;23.316;2023-05-14T07:17:49;95053.03;;;18.28;98.38
6090;BME280;3073;42.660;23.316;2023-05-14T07:26:06;95064.41;;;18.89;95.50
6090;BME280;3073;42.660;23.316;2023-05-14T07:28:34;95066.94;;;18.32;99.29
6090;BME280;3073;42.660;23.316;2023-05-14T07:31:01;95066.94;;;17.34;100.00
6090;BME280;3073;42.660;23.316;2023-05-14T07:33:29;95063.31;;;17.94;99.43
6090;BME280;3073;42.660;23.316;2023-05-14T07:35:56;95062.59;;;18.27;96.14
6090;BME280;3073;42.660;23.316;2023-05-14T07:38:23;95058.63;;;18.74;94.29
6090;BME280;3073;42.660;23.316;2023-05-14T07:40:49;95060.69;;;18.04;97.62
6090;BME280;3073;42.660;23.316;2023-05-14T07:43:18;95066.44;;;18.30;95.05
6090;BME280;3073;42.660;23.316;2023-05-14T07:45:44;95075.59;;;18.12;98.54
6090;BME280;3073;42.660;23.316;2023-05-14T07:48:11;95067.09;;;18.45;98.70
6090;BME280;3073;42.660;23.316;2023-05-14T07:50:38;95077.47;;;18.01;99.00
6090;BME280;3073;42.660;23.316;2023-05-14T07:53:05;95082.13;;;18.38;98.27
6090;BME280;3073;42.660;23.316;2023-05-14T07:55:32;95092.84;;;18.22;97.21
6090;BME280;3073;42.660;23.316;2023-05-14T07:58:02;95084.41;;;18.79;95.82
6090;BME280;3073;42.660;23.316;2023-05-14T08:00:32;95083.31;;;18.56;98.47
6090;BME280;3073;42.660;23.316;2023-05-14T08:03:00;95076.25;;;18.67;95.11
6090;BME280;3073;42.660;23.316;2023-05-14T08:05:27;95078.28;;;18.98;94.66
6090;BME280;3073;42.660;23.316;2023-05-14T08:07:54;95069.28;;;18.67;96.79
6090;BME280;3073;42.660;23.316;2023-05-14T08:10:21;95092.69;;;17.44;100.00
6090;BME280;3073;42.660;23.316;2023-05-14T08:12:48;95092.41;;;18.10;100.00
6090;BME280;3073;42.660;23.316;2023-05-14T08:15:15;95078.47;;;19.07;96.28
6090;BME280;3073;42.660;23.316;2023-05-14T08:17:43;95062.38;;;18.19;100.00
6090;BME280;3073;42.660;23.316;2023-05-14T08:20:10;95044.84;;;18.55;100.00
6090;BME280;3073;42.660;23.316;2023-05-14T08:22:37;95056.06;;;17.96;100.00
6090;BME280;3073;42.660;23.316;2023-05-14T08:25:05;95052.59;;;17.72;100.00
6090;BME280;3073;42.660;23.316;2023-05-14T08:27:32;95045.88;;;18.15;100.00
6090;BME280;3073;42.660;23.316;2023-05-14T08:29:58;95047.81;;;18.33;98.70
6090;BME280;3073;42.660;23.316;2023-05-14T08:32:25;95045.53;;;17.87;100.00
6090;BME280;3073;42.660;23.316;2023-05-14T08:34:56;95049.00;;;18.12;99.53
6090;BME280;3073;42.660;23.316;2023-05-14T08:37:24;95051.78;;;17.76;100.00
6090;BME280;3073;42.660;23.316;2023-05-14T08:39:51;95039.72;;;17.67;100.00
6090;BME280;3073;42.660;23.316;2023-05-14T08:42:19;95046.00;;;17.35;100.00
6090;BME280;3073;42.660;23.316;2023-05-14T08:44:48;95034.63;;;17.95;100.00
6090;BME280;3073;42.660;23.316;2023-05-14T08:47:17;95016.44;;;17.77;100.00
6090;BME280;3073;42.660;23.316;2023-05-14T08:49:51;95010.16;;;18.56;95.99
6090;BME280;3073;42.660;23.316;2023-05-14T08:52:22;95034.91;;;17.94;96.46
6090;BME280;3073;42.660;23.316;2023-05-14T08:54:50;95037.81;;;18.60;95.21
6090;BME280;3073;42.660;23.316;2023-05-14T08:57:19;95033.66;;;18.88;94.05
6090;BME280;3073;42.660;23.316;2023-05-14T08:59:49;95025.25;;;18.43;97.08
6090;BME280;3073;42.660;23.316;2023-05-14T09:02:33;95025.47;;;18.47;96.98
6090;BME280;3073;42.660;23.316;2023-05-14T09:05:05;95031.50;;;18.71;95.16
6090;BME280;3073;42.660;23.316;2023-05-14T09:07:38;95026.22;;;19.05;93.26
6090;BME280;3073;42.660;23.316;2023-05-14T09:10:07;95025.63;;;19.37;91.86
6090;BME280;3073;42.660;23.316;2023-05-14T09:12:41;95027.50;;;18.55;92.61
6090;BME280;3073;42.660;23.316;2023-05-14T09:15:08;95029.19;;;19.65;91.09
6090;BME280;3073;42.660;23.316;2023-05-14T09:17:35;95012.31;;;19.01;95.37
6090;BME280;3073;42.660;23.316;2023-05-14T09:20:02;95030.22;;;19.40;92.57
6090;BME280;3073;42.660;23.316;2023-05-14T09:22:30;95027.28;;;18.80;90.95
6090;BME280;3073;42.660;23.316;2023-05-14T09:25:03;95036.09;;;19.03;92.79
6090;BME280;3073;42.660;23.316;2023-05-14T09:27:31;95031.13;;;19.30;92.78
6090;BME280;3073;42.660;23.316;2023-05-14T09:30:09;95011.53;;;19.48;91.03
6090;BME280;3073;42.660;23.316;2023-05-14T09:32:38;95004.84;;;19.42;95.97
6090;BME280;3073;42.660;23.316;2023-05-14T09:35:13;95012.00;;;19.26;95.96
6090;BME280;3073;42.660;23.316;2023-05-14T09:37:42;95018.31;;;19.39;91.31
6090;BME280;3073;42.660;23.316;2023-05-14T09:40:11;95021.13;;;19.66;88.60
6090;BME280;3073;42.660;23.316;2023-05-14T09:42:39;95006.84;;;19.02;94.19
6090;BME280;3073;42.660;23.316;2023-05-14T09:45:06;94990.59;;;18.16;94.37
6090;BME280;3073;42.660;23.316;2023-05-14T09:47:36;94987.53;;;18.14;100.00
6090;BME280;3073;42.660;23.316;2023-05-14T09:50:05;94994.44;;;18.81;94.66
6090;BME280;3073;42.660;23.316;2023-05-14T09:52:33;94991.22;;;19.13;93.04
6090;BME280;3073;42.660;23.316;2023-05-14T09:55:03;94993.31;;;19.11;92.36
6090;BME280;3073;42.660;23.316;2023-05-14T09:57:32;95001.28;;;19.38;89.40
6090;BME280;3073;42.660;23.316;2023-05-14T09:59:59;94993.69;;;18.75;93.01
6090;BME280;3073;42.660;23.316;2023-05-14T10:02:29;94992.38;;;18.54;91.29
6090;BME280;3073;42.660;23.316;2023-05-14T10:05:08;94986.94;;;19.03;91.25
6090;BME280;3073;42.660;23.316;2023-05-14T10:07:38;94970.75;;;18.40;96.37
6090;BME280;3073;42.660;23.316;2023-05-14T10:10:14;94970.16;;;18.77;92.33
6090;BME280;3073;42.660;23.316;2023-05-14T10:12:56;94972.50;;;19.21;88.22
6090;BME280;3073;42.660;23.316;2023-05-14T10:15:56;94960.13;;;18.18;91.20
6090;BME280;3073;42.660;23.316;2023-05-14T10:18:38;94952.06;;;18.48;90.59
6090;BME280;3073;42.660;23.316;2023-05-14T10:21:07;94948.66;;;18.81;90.19
6090;BME280;3073;42.660;23.316;2023-05-14T10:26:34;94952.94;;;19.15;89.59
6090;BME280;3073;42.660;23.316;2023-05-14T10:29:09;94982.34;;;19.42;89.75
6090;BME280;3073;42.660;23.316;2023-05-14T10:31:50;94972.56;;;18.68;91.64
6090;BME280;3073;42.660;23.316;2023-05-14T10:34:34;94978.81;;;18.91;89.21
6090;BME280;3073;42.660;23.316;2023-05-14T10:37:09;94971.66;;;19.25;90.33
6090;BME280;3073;42.660;23.316;2023-05-14T10:39:40;94954.69;;;18.72;91.71
6090;BME280;3073;42.660;23.316;2023-05-14T10:42:09;94953.03;;;19.05;90.74
6090;BME280;3073;42.660;23.316;2023-05-14T10:44:44;94965.59;;;18.69;91.20
6090;BME280;3073;42.660;23.316;2023-05-14T10:47:13;94967.38;;;19.16;89.72
6090;BME280;3073;42.660;23.316;2023-05-14T10:49:44;94963.88;;;20.19;85.61
6090;BME280;3073;42.660;23.316;2023-05-14T10:52:15;94957.63;;;19.31;93.75
6090;BME280;3073;42.660;23.316;2023-05-14T10:54:47;94953.97;;;19.14;93.79
6090;BME280;3073;42.660;23.316;2023-05-14T10:57:16;94963.22;;;19.94;89.89
6090;BME280;3073;42.660;23.316;2023-05-14T10:59:59;94952.25;;;20.48;87.68
6090;BME280;3073;42.660;23.316;2023-05-14T11:02:27;94945.84;;;21.00;84.34
6090;BME280;3073;42.660;23.316;2023-05-14T11:04:56;94942.97;;;20.61;86.89
6090;BME280;3073;42.660;23.316;2023-05-14T11:07:28;94950.41;;;20.35;86.86
6090;BME280;3073;42.660;23.316;2023-05-14T11:10:03;94960.88;;;20.30;86.19
6090;BME280;3073;42.660;23.316;2023-05-14T11:12:31;94962.16;;;20.74;81.44
6090;BME280;3073;42.660;23.316;2023-05-14T11:15:01;94960.72;;;21.08;82.60
6090;BME280;3073;42.660;23.316;2023-05-14T11:17:29;94958.50;;;20.47;83.07
6090;BME280;3073;42.660;23.316;2023-05-14T11:19:59;94977.31;;;20.53;82.82
6090;BME280;3073;42.660;23.316;2023-05-14T11:22:26;94967.44;;;20.82;79.83
6090;BME280;3073;42.660;23.316;2023-05-14T11:24:53;94965.81;;;19.76;86.07
6090;BME280;3073;42.660;23.316;2023-05-14T11:27:21;94960.13;;;20.43;82.71
6090;BME280;3073;42.660;23.316;2023-05-14T11:29:49;94950.91;;;20.78;81.19
6090;BME280;3073;42.660;23.316;2023-05-14T11:32:18;94948.84;;;20.02;85.80
6090;BME280;3073;42.660;23.316;2023-05-14T11:34:45;94954.59;;;20.91;83.61
6090;BME280;3073;42.660;23.316;2023-05-14T11:37:14;94955.16;;;20.88;80.70
6090;BME280;3073;42.660;23.316;2023-05-14T11:39:46;94966.84;;;20.72;80.29
6090;BME280;3073;42.660;23.316;2023-05-14T11:42:14;94965.34;;;20.71;82.55
6090;BME280;3073;42.660;23.316;2023-05-14T11:44:44;94951.91;;;21.10;80.43
6090;BME280;3073;42.660;23.316;2023-05-14T11:47:11;94939.28;;;21.03;84.83
6090;BME280;3073;42.660;23.316;2023-05-14T11:49:40;94943.03;;;20.97;82.11
6090;BME280;3073;42.660;23.316;2023-05-14T11:52:08;94946.59;;;21.01;83.28
6090;BME280;3073;42.660;23.316;2023-05-14T11:54:36;94943.81;;;20.84;80.07
6090;BME280;3073;42.660;23.316;2023-05-14T11:57:07;94941.41;;;20.87;79.20
6090;BME280;3073;42.660;23.316;2023-05-14T11:59:35;94931.03;;;20.46;82.60
6090;BME280;3073;42.660;23.316;2023-05-14T12:02:03;94934.59;;;21.90;77.63
6090;BME280;3073;42.660;23.316;2023-05-14T12:04:30;94927.75;;;21.23;77.93
6090;BME280;3073;42.660;23.316;2023-05-14T12:06:59;94938.44;;;21.93;78.87
6090;BME280;3073;42.660;23.316;2023-05-14T12:09:35;94931.97;;;22.13;76.98
6090;BME280;3073;42.660;23.316;2023-05-14T12:12:09;94917.94;;;21.91;77.32
6090;BME280;3073;42.660;23.316;2023-05-14T12:14:37;94902.25;;;21.83;76.52
6090;BME280;3073;42.660;23.316;2023-05-14T12:17:11;94906.81;;;21.99;73.93
6090;BME280;3073;42.660;23.316;2023-05-14T12:19:40;94901.44;;;21.96;74.88
6090;BME280;3073;42.660;23.316;2023-05-14T12:22:09;94901.72;;;21.72;76.92
6090;BME280;3073;42.660;23.316;2023-05-14T12:24:37;94901.03;;;22.02;73.75
6090;BME280;3073;42.660;23.316;2023-05-14T12:27:05;94890.50;;;21.41;75.79
6090;BME280;3073;42.660;23.316;2023-05-14T12:29:35;94880.63;;;20.66;78.23
6090;BME280;3073;42.660;23.316;2023-05-14T12:32:06;94879.06;;;20.79;77.16
6090;BME280;3073;42.660;23.316;2023-05-14T12:34:34;94881.94;;;21.04;79.96
6090;BME280;3073;42.660;23.316;2023-05-14T12:37:01;94881.44;;;20.89;76.18
6090;BME280;3073;42.660;23.316;2023-05-14T12:39:31;94874.38;;;21.30;76.06
6090;BME280;3073;42.660;23.316;2023-05-14T12:41:59;94868.09;;;21.67;73.34
6090;BME280;3073;42.660;23.316;2023-05-14T12:44:26;94863.13;;;21.57;76.91
6090;BME280;3073;42.660;23.316;2023-05-14T12:46:53;94870.69;;;20.95;77.87
6090;BME280;3073;42.660;23.316;2023-05-14T12:49:20;94867.03;;;21.90;74.58
6090;BME280;3073;42.660;23.316;2023-05-14T12:51:47;94864.75;;;20.81;73.97
6090;BME280;3073;42.660;23.316;2023-05-14T12:54:13;94863.53;;;21.73;74.06
6090;BME280;3073;42.660;23.316;2023-05-14T12:56:42;94855.44;;;22.27;70.76
6090;BME280;3073;42.660;23.316;2023-05-14T12:59:09;94865.13;;;21.38;72.97
6090;BME280;3073;42.660;23.316;2023-05-14T13:01:36;94870.91;;;21.35;73.63
6090;BME280;3073;42.660;23.316;2023-05-14T13:04:03;94867.88;;;22.39;69.96
6090;BME280;3073;42.660;23.316;2023-05-14T13:06:31;94856.81;;;21.49;75.03
6090;BME280;3073;42.660;23.316;2023-05-14T13:08:58;94856.63;;;21.46;74.16
6090;BME280;3073;42.660;23.316;2023-05-14T13:11:26;94855.16;;;21.53;73.32
6090;BME280;3073;42.660;23.316;2023-05-14T13:13:57;94857.59;;;21.50;74.88
6090;BME280;3073;42.660;23.316;2023-05-14T13:16:25;94845.78;;;21.44;71.48
6090;BME280;3073;42.660;23.316;2023-05-14T13:18:51;94842.63;;;20.48;75.96
6090;BME280;3073;42.660;23.316;2023-05-14T13:21:18;94849.56;;;20.07;77.70
6090;BME280;3073;42.660;23.316;2023-05-14T13:23:45;94836.34;;;20.35;78.12
6090;BME280;3073;42.660;23.316;2023-05-14T13:26:12;94833.78;;;19.89;82.32
6090;BME280;3073;42.660;23.316;2023-05-14T13:28:39;94836.31;;;20.76;79.29